CheckWX is a tool to help pilots better visualize weather data.  It is not intended as a substitute for an official pre-flight weather briefing.

19:40:51 UTC

KEVV TAF
Evansville Regional Airport
Evansville, Indiana, USA
KEVV 211720Z 2118/2218 21009KT P6SM SCT050 BKN200 FM212200 19007KT P6SM FEW060 SCT250 FM221500 22011G21KT P6SM SCT180

Sep-21@
18:00 UTC

Sep-21 @ 18:00 UTC

Sep-21@
22:00 UTC

Sep-21 @ 22:00 UTC

KEVV 211720Z 2118/2218 21009KT P6SM SCT050 BKN200
Wind
  • 210° at 9 KTS
Cloud Levels
  • Scattered at 5,000' AGL
  • Broken at 20,000' AGL

Sep-21@
22:00 UTC

Sep-21 @ 22:00 UTC

Sep-22@
15:00 UTC

Sep-22 @ 15:00 UTC

FM212200 19007KT P6SM FEW060 SCT250

From

From Standard forecast or significant change

Wind
  • 190° at 7 KTS
Cloud Levels
  • Few at 6,000' AGL
  • Scattered at 25,000' AGL

Sep-22@
15:00 UTC

Sep-22 @ 15:00 UTC

Sep-22@
18:00 UTC

Sep-22 @ 18:00 UTC

FM221500 22011G21KT P6SM SCT180

From

From Standard forecast or significant change

Wind
  • 220° at 11 KTS
  • {Gusting to 21 KTS
Cloud Levels
  • Scattered at 18,000' AGL